createdAt,value
2018-10-21T00:00:14.265Z,31.77
2018-10-21T00:02:47.252Z,30.65
2018-10-21T00:05:14.497Z,29.65
2018-10-21T00:07:47.548Z,32.25
2018-10-21T00:10:14.780Z,31.42
2018-10-21T00:12:42.009Z,30.68
2018-10-21T00:15:10.264Z,29.05
2018-10-21T00:17:37.408Z,29.72
2018-10-21T00:20:04.892Z,32.65
2018-10-21T00:22:32.676Z,31.52
2018-10-21T00:24:59.891Z,30.68
2018-10-21T00:27:32.797Z,32.25
2018-10-21T00:30:05.833Z,35.15
2018-10-21T00:32:38.786Z,29.65
2018-10-21T00:35:06.863Z,26.65
2018-10-21T00:37:34.112Z,31.77
2018-10-21T00:40:01.345Z,32.45
2018-10-21T00:42:28.559Z,32.70
2018-10-21T00:45:02.175Z,30.15
2018-10-21T00:47:29.384Z,32.00
2018-10-21T00:49:56.600Z,33.42
2018-10-21T00:52:29.590Z,32.88
2018-10-21T00:55:02.892Z,33.30
2018-10-21T00:57:30.092Z,31.45
2018-10-21T00:59:57.307Z,28.45
2018-10-21T01:02:24.552Z,28.17
2018-10-21T01:04:51.759Z,30.70
2018-10-21T01:07:18.992Z,27.70
2018-10-21T01:09:46.240Z,28.10
2018-10-21T01:12:13.453Z,27.93
2018-10-21T01:14:40.712Z,28.25
2018-10-21T01:17:07.929Z,27.48
2018-10-21T01:19:35.160Z,26.52
2018-10-21T01:22:02.400Z,29.50
2018-10-21T01:24:29.620Z,27.60
2018-10-21T01:26:56.877Z,29.60
2018-10-21T01:29:24.073Z,30.30
2018-10-21T01:31:51.304Z,32.15
2018-10-21T01:34:18.531Z,32.73
2018-10-21T01:39:27.473Z,32.00
2018-10-21T01:42:00.328Z,31.07
2018-10-21T01:47:00.418Z,34.27
2018-10-21T01:49:33.278Z,33.73
2018-10-21T01:52:00.477Z,34.35
2018-10-21T01:57:07.022Z,35.50
2018-10-21T01:59:34.236Z,32.17
2018-10-21T02:02:01.436Z,32.15
2018-10-21T02:04:29.643Z,32.93
2018-10-21T02:06:56.872Z,34.65
2018-10-21T02:12:02.724Z,33.18
2018-10-21T02:17:03.093Z,32.70
2018-10-21T02:19:30.328Z,30.72
2018-10-21T02:24:36.416Z,32.48
2018-10-21T02:27:03.974Z,33.13
2018-10-21T02:29:31.179Z,31.82
2018-10-21T02:31:58.388Z,32.28
2018-10-21T02:34:25.597Z,31.25
2018-10-21T02:36:59.142Z,29.42
2018-10-21T02:39:26.410Z,29.37
2018-10-21T02:41:55.136Z,28.45
2018-10-21T02:44:22.904Z,28.80
2018-10-21T02:46:52.104Z,28.87
2018-10-21T02:49:20.052Z,30.12
2018-10-21T02:51:58.776Z,29.95
2018-10-21T02:54:27.261Z,28.12
2018-10-21T02:57:00.465Z,26.90
2018-10-21T02:59:27.639Z,28.52
2018-10-21T03:01:54.918Z,26.50
2018-10-21T03:04:22.314Z,27.85
2018-10-21T03:06:49.770Z,28.50
2018-10-21T03:09:22.935Z,24.87
2018-10-21T03:14:28.909Z,28.38
2018-10-21T03:16:56.243Z,28.23
2018-10-21T03:19:23.500Z,28.10
2018-10-21T03:21:50.724Z,28.02
2018-10-21T03:24:18.144Z,29.75
2018-10-21T03:26:46.020Z,29.35
2018-10-21T03:29:19.072Z,31.15
2018-10-21T03:31:46.292Z,31.23
2018-10-21T03:36:46.414Z,28.38
2018-10-21T03:39:13.613Z,31.37
2018-10-21T03:41:40.837Z,29.55
2018-10-21T03:44:08.084Z,31.25
2018-10-21T03:46:35.282Z,29.98
2018-10-21T03:49:02.484Z,28.92
2018-10-21T03:51:29.700Z,29.72
2018-10-21T03:53:56.924Z,29.42
2018-10-21T03:56:24.183Z,31.30
2018-10-21T03:58:51.805Z,31.48
2018-10-21T04:01:19.066Z,32.63
2018-10-21T04:03:46.277Z,30.57
2018-10-21T04:06:14.524Z,30.27
2018-10-21T04:08:41.725Z,29.92
2018-10-21T04:11:08.973Z,31.87
2018-10-21T04:16:09.329Z,30.52
2018-10-21T04:18:36.473Z,31.87
2018-10-21T04:21:09.586Z,29.30
2018-10-21T04:23:36.789Z,29.82
2018-10-21T04:26:04.067Z,29.10
2018-10-21T04:28:36.916Z,30.10
2018-10-21T04:31:04.336Z,26.55
2018-10-21T04:33:46.337Z,28.00
2018-10-21T04:40:06.143Z,29.95
2018-10-21T04:45:07.163Z,30.02
2018-10-21T04:50:13.923Z,27.85
2018-10-21T04:52:41.152Z,30.55
2018-10-21T04:55:11.671Z,28.70
2018-10-21T04:57:40.020Z,29.80
2018-10-21T05:00:11.712Z,31.20
2018-10-21T05:02:38.979Z,32.48
2018-10-21T05:07:40.438Z,28.60
2018-10-21T05:13:05.347Z,30.75
2018-10-21T05:15:33.578Z,31.00
2018-10-21T05:18:00.921Z,28.50
2018-10-21T05:20:28.152Z,31.37
2018-10-21T05:22:55.629Z,31.10
2018-10-21T05:25:22.905Z,29.23
2018-10-21T05:27:55.843Z,29.95
2018-10-21T05:30:23.086Z,30.52
2018-10-21T05:32:56.038Z,28.30
2018-10-21T05:35:23.295Z,29.92
2018-10-21T05:37:50.558Z,31.15
2018-10-21T05:40:19.012Z,32.33
2018-10-21T05:42:46.548Z,30.60
2018-10-21T05:45:13.792Z,28.62
2018-10-21T05:47:41.391Z,30.17
2018-10-21T05:50:09.787Z,30.57
2018-10-21T05:55:16.227Z,30.82
2018-10-21T05:57:43.466Z,32.03
2018-10-21T06:00:13.214Z,30.10
2018-10-21T06:02:40.488Z,28.52
2018-10-21T06:05:19.492Z,28.75
2018-10-21T06:07:52.416Z,27.58
2018-10-21T06:10:19.688Z,27.73
2018-10-21T06:12:46.896Z,29.02
2018-10-21T06:15:14.124Z,29.52
2018-10-21T06:17:41.356Z,30.27
2018-10-21T06:20:23.200Z,28.87
2018-10-21T06:22:50.637Z,25.27
2018-10-21T06:25:24.775Z,27.90
2018-10-21T06:27:52.022Z,27.22
2018-10-21T06:30:19.257Z,26.77
2018-10-21T06:32:46.494Z,28.90
2018-10-21T06:35:13.716Z,28.38
2018-10-21T06:37:40.944Z,30.85
2018-10-21T06:40:09.780Z,26.37
2018-10-21T06:42:38.113Z,27.32
2018-10-21T06:45:06.484Z,27.55
2018-10-21T06:47:33.741Z,27.60
2018-10-21T06:50:00.952Z,27.52
2018-10-21T06:52:28.221Z,27.20
2018-10-21T06:54:55.452Z,27.98
2018-10-21T06:57:23.471Z,27.55
2018-10-21T06:59:50.680Z,28.17
2018-10-21T07:02:17.947Z,28.57
2018-10-21T07:04:45.201Z,28.45
2018-10-21T07:07:12.441Z,27.80
2018-10-21T07:09:39.660Z,28.75
2018-10-21T07:12:06.896Z,28.65
2018-10-21T07:17:07.050Z,29.10
2018-10-21T07:19:34.272Z,26.37
2018-10-21T07:22:01.557Z,28.40
2018-10-21T07:24:28.756Z,25.85
2018-10-21T07:26:56.029Z,25.93
2018-10-21T07:29:23.268Z,25.17
2018-10-21T07:31:56.284Z,25.32
2018-10-21T07:34:23.517Z,24.83
2018-10-21T07:36:50.764Z,24.17
2018-10-21T07:39:18.020Z,23.60
2018-10-21T07:41:45.288Z,21.80
2018-10-21T07:46:45.568Z,24.60
2018-10-21T07:49:12.849Z,21.70
2018-10-21T07:51:40.048Z,22.60
2018-10-21T07:54:07.988Z,20.83
2018-10-21T07:56:47.021Z,19.67
2018-10-21T07:59:14.456Z,18.85
2018-10-21T08:01:47.317Z,18.57
2018-10-21T08:04:14.635Z,20.27
2018-10-21T08:06:53.532Z,18.87
2018-10-21T08:09:26.506Z,19.30
2018-10-21T08:11:53.705Z,18.90
2018-10-21T08:14:20.985Z,18.70
2018-10-21T08:16:48.213Z,19.97
2018-10-21T08:24:21.412Z,19.20
2018-10-21T08:26:54.408Z,20.20
2018-10-21T08:29:21.615Z,19.43
2018-10-21T08:31:48.854Z,18.73
2018-10-21T08:34:16.182Z,18.37
2018-10-21T08:36:43.311Z,19.10
2018-10-21T08:41:43.438Z,18.37
2018-10-21T08:44:10.688Z,20.17
2018-10-21T08:46:39.014Z,18.60
2018-10-21T08:49:06.313Z,18.40
2018-10-21T08:51:33.492Z,18.67
2018-10-21T08:54:00.735Z,18.53
2018-10-21T08:56:27.981Z,19.27
2018-10-21T08:58:55.700Z,19.50
2018-10-21T09:01:28.652Z,19.10
2018-10-21T09:03:55.882Z,17.60
2018-10-21T09:06:23.113Z,20.00
2018-10-21T09:08:50.374Z,19.17
2018-10-21T09:11:17.576Z,21.33
2018-10-21T09:13:44.808Z,20.30
2018-10-21T09:16:12.592Z,19.87
2018-10-21T09:18:39.734Z,19.50
2018-10-21T09:21:06.952Z,18.87
2018-10-21T09:23:34.156Z,19.10
2018-10-21T09:26:01.730Z,20.77
2018-10-21T09:28:32.952Z,20.20
2018-10-21T09:31:00.242Z,20.20
2018-10-21T09:33:30.457Z,17.83
2018-10-21T09:35:57.602Z,20.10
2018-10-21T09:38:24.852Z,17.13
2018-10-21T09:40:52.052Z,18.30
2018-10-21T09:43:19.288Z,19.40
2018-10-21T09:45:46.525Z,17.47
2018-10-21T09:48:13.748Z,18.97
2018-10-21T09:50:46.664Z,18.53
2018-10-21T09:53:19.624Z,18.47
2018-10-21T09:55:46.845Z,17.20
2018-10-21T09:58:14.126Z,15.93
2018-10-21T10:00:47.108Z,15.70
2018-10-21T10:03:14.324Z,15.70
2018-10-21T10:05:42.980Z,15.27
2018-10-21T10:08:10.224Z,13.97
2018-10-21T10:10:43.161Z,9.10
2018-10-21T10:13:10.466Z,11.10
2018-10-21T10:15:38.704Z,9.97
2018-10-21T10:18:11.652Z,9.13
2018-10-21T10:20:50.534Z,9.73
2018-10-21T10:23:17.814Z,8.20
2018-10-21T10:25:45.048Z,8.03
2018-10-21T10:28:12.400Z,7.77
2018-10-21T10:30:39.615Z,8.60
2018-10-21T10:33:06.865Z,8.30
2018-10-21T10:38:08.005Z,7.77
2018-10-21T10:40:35.229Z,9.27
2018-10-21T10:43:02.462Z,6.77
2018-10-21T10:45:29.720Z,6.70
2018-10-21T10:47:56.932Z,6.90
2018-10-21T10:50:24.196Z,7.23
2018-10-21T10:52:51.481Z,8.00
2018-10-21T10:55:18.743Z,6.73
2018-10-21T10:57:47.004Z,6.97
2018-10-21T11:00:14.317Z,6.90
2018-10-21T11:02:41.664Z,4.97
2018-10-21T11:05:09.628Z,6.00
2018-10-21T11:10:10.121Z,4.57
2018-10-21T11:12:43.029Z,3.67
2018-10-21T11:17:43.209Z,3.20
2018-10-21T11:22:54.929Z,4.30
2018-10-21T11:27:55.403Z,5.10
2018-10-21T11:30:23.709Z,4.73
2018-10-21T11:35:29.717Z,4.60
2018-10-21T11:37:56.967Z,4.40
2018-10-21T11:40:24.184Z,5.20
2018-10-21T11:42:51.420Z,5.10
2018-10-21T11:45:19.230Z,5.37
2018-10-21T11:47:52.282Z,4.10
2018-10-21T11:50:25.233Z,4.20
2018-10-21T11:52:52.474Z,4.40
2018-10-21T11:55:19.729Z,5.30
2018-10-21T11:57:46.979Z,5.13
2018-10-21T12:00:14.232Z,5.30
2018-10-21T12:05:14.652Z,5.40
2018-10-21T12:07:41.849Z,3.60
2018-10-21T12:10:09.521Z,3.47
2018-10-21T12:12:36.770Z,5.13
2018-10-21T12:15:04.493Z,4.57
2018-10-21T12:17:43.344Z,5.40
2018-10-21T12:20:10.549Z,5.07
2018-10-21T12:22:37.811Z,6.13
2018-10-21T12:25:05.504Z,5.70
2018-10-21T12:27:32.616Z,5.20
2018-10-21T12:29:59.817Z,4.80
2018-10-21T12:32:27.937Z,5.10
2018-10-21T12:34:55.242Z,6.03
2018-10-21T12:37:22.425Z,6.77
2018-10-21T12:39:49.804Z,5.47
2018-10-21T12:42:17.014Z,5.20
2018-10-21T12:44:44.292Z,4.40
2018-10-21T12:47:17.369Z,4.70
2018-10-21T12:49:44.555Z,3.77
2018-10-21T12:52:11.882Z,5.30
2018-10-21T12:57:12.004Z,6.13
2018-10-21T12:59:39.211Z,5.67
2018-10-21T13:02:06.488Z,5.33
2018-10-21T13:04:34.100Z,3.90
2018-10-21T13:07:01.391Z,5.10
2018-10-21T13:09:28.600Z,4.13
2018-10-21T13:11:55.991Z,3.97
2018-10-21T13:14:23.188Z,4.00
2018-10-21T13:16:50.424Z,3.63
2018-10-21T13:19:17.727Z,2.90
2018-10-21T13:21:45.513Z,3.47
2018-10-21T13:24:18.512Z,3.17
2018-10-21T13:26:45.753Z,2.77
2018-10-21T13:29:12.977Z,3.80
2018-10-21T13:34:13.377Z,3.03
2018-10-21T13:36:40.513Z,3.50
2018-10-21T13:39:14.105Z,4.63
2018-10-21T13:44:15.320Z,4.30
2018-10-21T13:46:48.363Z,4.57
2018-10-21T13:49:15.676Z,3.63
2018-10-21T13:51:42.832Z,3.00
2018-10-21T13:54:10.056Z,2.90
2018-10-21T13:56:37.277Z,3.10
2018-10-21T13:59:04.754Z,2.47
2018-10-21T14:01:32.026Z,3.47
2018-10-21T14:03:59.255Z,3.07
2018-10-21T14:06:26.499Z,2.90
2018-10-21T14:08:53.716Z,3.43
2018-10-21T14:11:21.168Z,3.20
2018-10-21T14:13:48.411Z,3.07
2018-10-21T14:16:15.794Z,3.20
2018-10-21T14:18:43.010Z,3.10
2018-10-21T14:21:16.077Z,3.17
2018-10-21T14:23:43.293Z,4.00
2018-10-21T14:26:10.701Z,3.80
2018-10-21T14:28:43.780Z,3.50
2018-10-21T14:31:11.009Z,4.33
2018-10-21T14:33:46.603Z,4.53
2018-10-21T14:36:14.224Z,4.03
2018-10-21T14:38:41.394Z,3.40
2018-10-21T14:41:08.638Z,3.87
2018-10-21T14:46:08.906Z,3.20
2018-10-21T14:48:36.084Z,2.67
2018-10-21T14:53:36.609Z,3.10
2018-10-21T14:56:09.673Z,2.80
2018-10-21T14:58:37.461Z,3.10
2018-10-21T15:01:04.833Z,3.00
2018-10-21T15:03:32.355Z,3.03
2018-10-21T15:06:00.360Z,2.67
2018-10-21T15:08:27.584Z,2.83
2018-10-21T15:10:54.810Z,3.20
2018-10-21T15:13:22.032Z,3.70
2018-10-21T15:15:49.286Z,3.10
2018-10-21T15:18:16.537Z,2.97
2018-10-21T15:20:43.793Z,3.27
2018-10-21T15:23:16.805Z,2.80
2018-10-21T15:25:44.993Z,2.77
2018-10-21T15:28:12.319Z,3.43
2018-10-21T15:30:45.086Z,2.77
2018-10-21T15:33:12.360Z,3.13
2018-10-21T15:35:39.555Z,2.50
2018-10-21T15:38:06.910Z,2.83
2018-10-21T15:40:34.077Z,2.90
2018-10-21T15:43:01.291Z,3.20
2018-10-21T15:45:28.502Z,3.23
2018-10-21T15:47:56.673Z,2.83
2018-10-21T15:50:23.930Z,3.47
2018-10-21T15:52:51.190Z,3.00
2018-10-21T15:55:24.130Z,3.17
2018-10-21T15:57:57.046Z,3.10
2018-10-21T16:00:24.264Z,3.50
2018-10-21T16:02:51.537Z,3.63
2018-10-21T16:05:18.761Z,2.90
2018-10-21T16:07:46.040Z,3.60
2018-10-21T16:10:13.294Z,3.57
2018-10-21T16:12:40.508Z,3.60
2018-10-21T16:15:15.224Z,3.73
2018-10-21T16:17:48.228Z,2.93
2018-10-21T16:20:16.123Z,2.37
2018-10-21T16:22:43.973Z,2.60
2018-10-21T16:25:12.512Z,2.08
2018-10-21T16:27:40.234Z,2.50
2018-10-21T16:30:09.407Z,44.45
2018-10-21T16:32:36.791Z,7.05
2018-10-21T16:35:05.308Z,6.15
2018-10-21T16:37:35.518Z,10.10
2018-10-21T16:40:14.463Z,5.95
2018-10-21T16:42:47.655Z,7.47
2018-10-21T16:45:15.176Z,5.85
2018-10-21T16:47:49.281Z,3.17
2018-10-21T16:50:16.708Z,12.20
2018-10-21T16:52:44.905Z,2.80
2018-10-21T16:55:12.753Z,2.98
2018-10-21T16:57:45.691Z,2.85
2018-10-21T17:00:18.786Z,4.12
2018-10-21T17:02:51.953Z,8.23
2018-10-21T17:05:19.201Z,9.05
2018-10-21T17:07:52.164Z,8.65
2018-10-21T17:10:31.504Z,8.05
2018-10-21T17:12:58.442Z,17.73
2018-10-21T17:15:25.662Z,11.73
2018-10-21T17:17:52.937Z,9.30
2018-10-21T17:20:20.189Z,7.42
2018-10-21T17:22:47.429Z,5.25
2018-10-21T17:25:20.500Z,5.33
2018-10-21T17:27:48.420Z,6.83
2018-10-21T17:30:21.573Z,6.70
2018-10-21T17:32:48.776Z,5.87
2018-10-21T17:35:15.997Z,8.18
2018-10-21T17:37:43.267Z,18.17
2018-10-21T17:40:11.427Z,6.92
2018-10-21T17:42:38.772Z,48.85
2018-10-21T17:45:07.949Z,11.48
2018-10-21T17:47:35.208Z,29.80
2018-10-21T17:50:02.486Z,26.30
2018-10-21T17:52:36.135Z,7.80
2018-10-21T17:55:03.618Z,6.03
2018-10-21T17:57:30.844Z,9.28
2018-10-21T17:59:58.268Z,17.50
2018-10-21T18:02:25.542Z,10.35
2018-10-21T18:04:53.244Z,7.85
2018-10-21T18:07:20.537Z,8.08
2018-10-21T18:09:47.779Z,7.75
2018-10-21T18:12:15.034Z,7.55
2018-10-21T18:14:42.728Z,9.83
2018-10-21T18:17:09.988Z,30.00
2018-10-21T18:19:37.589Z,18.40
2018-10-21T18:22:05.118Z,6.80
2018-10-21T18:24:32.537Z,8.98
2018-10-21T18:26:59.764Z,8.20
2018-10-21T18:29:27.246Z,7.62
2018-10-21T18:31:54.490Z,6.70
2018-10-21T18:34:21.789Z,6.35
2018-10-21T18:36:49.009Z,7.28
2018-10-21T18:39:16.283Z,6.80
2018-10-21T18:41:43.485Z,6.08
2018-10-21T18:44:10.728Z,6.53
2018-10-21T18:46:37.988Z,6.30
2018-10-21T18:49:05.860Z,6.08
2018-10-21T18:51:33.158Z,5.20
2018-10-21T18:54:01.413Z,5.30
2018-10-21T18:56:28.636Z,6.10
2018-10-21T18:58:56.989Z,7.42
2018-10-21T19:01:24.229Z,8.88
2018-10-21T19:03:51.489Z,6.75
2018-10-21T19:06:18.733Z,9.18
2018-10-21T19:08:45.988Z,8.80
2018-10-21T19:11:13.274Z,5.62
2018-10-21T19:13:40.567Z,7.75
2018-10-21T19:16:07.905Z,5.92
2018-10-21T19:18:35.064Z,7.97
2018-10-21T19:21:02.337Z,5.95
2018-10-21T19:23:29.553Z,5.95
2018-10-21T19:25:56.804Z,7.33
2018-10-21T19:28:24.033Z,4.60
2018-10-21T19:30:51.272Z,6.55
2018-10-21T19:33:18.524Z,5.53
2018-10-21T19:35:45.776Z,8.08
2018-10-21T19:38:13.165Z,7.40
2018-10-21T19:40:40.357Z,5.47
2018-10-21T19:43:07.610Z,4.35
2018-10-21T19:45:34.834Z,5.08
2018-10-21T19:48:02.052Z,4.92
2018-10-21T19:50:29.294Z,5.40
2018-10-21T19:52:56.562Z,5.37
2018-10-21T19:55:23.804Z,5.00
2018-10-21T19:57:51.033Z,5.53
2018-10-21T20:00:18.330Z,4.75
2018-10-21T20:02:45.788Z,5.53
2018-10-21T20:05:13.140Z,4.55
2018-10-21T20:07:40.549Z,5.03
2018-10-21T20:10:09.779Z,5.85
2018-10-21T20:12:37.157Z,4.83
2018-10-21T20:15:05.205Z,5.85
2018-10-21T20:17:32.443Z,6.53
2018-10-21T20:19:59.676Z,5.20
2018-10-21T20:22:27.982Z,5.87
2018-10-21T20:24:55.207Z,5.53
2018-10-21T20:27:22.449Z,5.53
2018-10-21T20:29:49.700Z,6.00
2018-10-21T20:32:17.632Z,6.08
2018-10-21T20:34:44.844Z,5.30
2018-10-21T20:37:12.108Z,5.50
2018-10-21T20:39:41.792Z,6.42
2018-10-21T20:42:09.170Z,5.53
2018-10-21T20:44:36.363Z,6.12
2018-10-21T20:47:03.581Z,5.50
2018-10-21T20:49:30.789Z,5.75
2018-10-21T20:51:58.062Z,5.83
2018-10-21T20:54:29.888Z,5.92
2018-10-21T20:56:59.758Z,5.55
2018-10-21T20:59:27.004Z,5.47
2018-10-21T21:01:54.219Z,5.55
2018-10-21T21:04:21.473Z,6.03
2018-10-21T21:06:48.673Z,6.08
2018-10-21T21:09:15.880Z,5.72
2018-10-21T21:11:43.088Z,6.42
2018-10-21T21:14:10.309Z,6.35
2018-10-21T21:16:37.541Z,5.62
2018-10-21T21:19:04.848Z,5.60
2018-10-21T21:21:32.069Z,6.25
2018-10-21T21:23:59.367Z,5.58
2018-10-21T21:26:26.584Z,6.15
2018-10-21T21:28:53.813Z,6.05
2018-10-21T21:31:21.025Z,5.58
2018-10-21T21:33:48.282Z,5.95
2018-10-21T21:36:15.544Z,5.37
2018-10-21T21:38:42.681Z,6.05
2018-10-21T21:41:09.961Z,6.37
2018-10-21T21:43:37.205Z,5.92
2018-10-21T21:46:04.690Z,6.22
2018-10-21T21:48:31.864Z,5.62
2018-10-21T21:50:59.112Z,5.55
2018-10-21T21:53:26.327Z,6.35
2018-10-21T21:55:53.608Z,5.78
2018-10-21T21:58:20.837Z,6.05
2018-10-21T22:00:48.046Z,6.45
2018-10-21T22:03:15.262Z,5.55
2018-10-21T22:05:42.467Z,5.33
2018-10-21T22:08:09.675Z,4.80
2018-10-21T22:10:36.899Z,5.37
2018-10-21T22:13:04.296Z,5.60
2018-10-21T22:15:31.500Z,5.17
2018-10-21T22:17:58.736Z,5.80
2018-10-21T22:20:25.958Z,5.20
2018-10-21T22:22:53.159Z,5.10
2018-10-21T22:25:20.388Z,4.80
2018-10-21T22:27:47.604Z,5.45
2018-10-21T22:30:14.864Z,5.37
2018-10-21T22:32:42.020Z,5.72
2018-10-21T22:35:09.601Z,5.00
2018-10-21T22:37:37.072Z,5.92
2018-10-21T22:40:04.686Z,6.05
2018-10-21T22:42:31.841Z,6.05
2018-10-21T22:44:59.042Z,4.50
2018-10-21T22:47:26.329Z,5.67
2018-10-21T22:49:53.540Z,5.15
2018-10-21T22:52:20.800Z,5.20
2018-10-21T22:54:48.015Z,5.28
2018-10-21T22:57:16.828Z,5.75
2018-10-21T22:59:44.805Z,5.70
2018-10-21T23:02:12.288Z,7.75
2018-10-21T23:04:39.509Z,6.10
2018-10-21T23:07:06.710Z,5.15
2018-10-21T23:09:33.937Z,5.87
2018-10-21T23:12:01.320Z,5.70
2018-10-21T23:14:28.620Z,4.78
2018-10-21T23:16:55.856Z,6.08
2018-10-21T23:19:45.460Z,5.78
2018-10-21T23:22:12.742Z,5.90
2018-10-21T23:24:40.465Z,5.95
2018-10-21T23:27:08.424Z,5.15
2018-10-21T23:29:35.652Z,5.45
2018-10-21T23:32:02.879Z,7.05
2018-10-21T23:34:30.110Z,5.35
2018-10-21T23:36:57.344Z,7.00
2018-10-21T23:39:25.005Z,6.17
2018-10-21T23:41:52.213Z,5.70
2018-10-21T23:44:20.456Z,6.28
2018-10-21T23:46:48.200Z,6.22
2018-10-21T23:49:15.536Z,5.47
2018-10-21T23:51:42.748Z,6.72
2018-10-21T23:54:10.028Z,7.00
2018-10-21T23:56:37.397Z,6.90
2018-10-21T23:59:05.589Z,6.85
